sensor_id;sensor_type;location;lat;lon;timestamp;P1;durP1;ratioP1;P2;durP2;ratioP2
77838;SDS011;67034;43.226;27.932;2023-12-22T00:00:15;7.65;;;4.60;;
77838;SDS011;67034;43.226;27.932;2023-12-22T00:02:42;7.85;;;4.55;;
77838;SDS011;67034;43.226;27.932;2023-12-22T00:05:08;7.78;;;4.43;;
77838;SDS011;67034;43.226;27.932;2023-12-22T00:07:33;6.68;;;3.88;;
77838;SDS011;67034;43.226;27.932;2023-12-22T00:09:59;6.63;;;3.90;;
77838;SDS011;67034;43.226;27.932;2023-12-22T00:12:25;7.80;;;3.72;;
77838;SDS011;67034;43.226;27.932;2023-12-22T00:14:50;6.70;;;3.70;;
77838;SDS011;67034;43.226;27.932;2023-12-22T00:17:17;6.68;;;4.18;;
77838;SDS011;67034;43.226;27.932;2023-12-22T00:19:43;7.35;;;3.88;;
77838;SDS011;67034;43.226;27.932;2023-12-22T00:22:09;6.25;;;3.90;;
77838;SDS011;67034;43.226;27.932;2023-12-22T00:24:35;4.72;;;2.47;;
77838;SDS011;67034;43.226;27.932;2023-12-22T00:27:01;6.30;;;4.00;;
77838;SDS011;67034;43.226;27.932;2023-12-22T00:29:27;6.70;;;4.22;;
77838;SDS011;67034;43.226;27.932;2023-12-22T00:31:53;5.93;;;3.85;;
77838;SDS011;67034;43.226;27.932;2023-12-22T00:34:21;7.60;;;4.38;;
77838;SDS011;67034;43.226;27.932;2023-12-22T00:36:47;6.32;;;3.90;;
77838;SDS011;67034;43.226;27.932;2023-12-22T00:39:12;7.25;;;4.90;;
77838;SDS011;67034;43.226;27.932;2023-12-22T00:41:38;8.88;;;4.60;;
77838;SDS011;67034;43.226;27.932;2023-12-22T00:44:04;7.30;;;3.92;;
77838;SDS011;67034;43.226;27.932;2023-12-22T00:46:30;6.32;;;3.88;;
77838;SDS011;67034;43.226;27.932;2023-12-22T00:48:56;4.47;;;3.58;;
77838;SDS011;67034;43.226;27.932;2023-12-22T00:51:24;6.55;;;4.45;;
77838;SDS011;67034;43.226;27.932;2023-12-22T00:53:49;7.20;;;4.30;;
77838;SDS011;67034;43.226;27.932;2023-12-22T00:56:15;6.97;;;4.20;;
77838;SDS011;67034;43.226;27.932;2023-12-22T00:58:41;7.20;;;4.53;;
77838;SDS011;67034;43.226;27.932;2023-12-22T01:01:06;10.27;;;5.28;;
77838;SDS011;67034;43.226;27.932;2023-12-22T01:03:32;7.88;;;4.38;;
77838;SDS011;67034;43.226;27.932;2023-12-22T01:05:58;7.22;;;4.13;;
77838;SDS011;67034;43.226;27.932;2023-12-22T01:08:25;8.93;;;4.80;;
77838;SDS011;67034;43.226;27.932;2023-12-22T01:10:50;8.27;;;5.10;;
77838;SDS011;67034;43.226;27.932;2023-12-22T01:13:16;9.73;;;5.15;;
77838;SDS011;67034;43.226;27.932;2023-12-22T01:15:42;10.70;;;4.25;;
77838;SDS011;67034;43.226;27.932;2023-12-22T01:18:09;5.78;;;3.78;;
77838;SDS011;67034;43.226;27.932;2023-12-22T01:20:35;6.53;;;3.97;;
77838;SDS011;67034;43.226;27.932;2023-12-22T01:23:00;8.18;;;4.32;;
77838;SDS011;67034;43.226;27.932;2023-12-22T01:25:28;6.60;;;3.67;;
77838;SDS011;67034;43.226;27.932;2023-12-22T01:27:54;4.75;;;3.20;;
77838;SDS011;67034;43.226;27.932;2023-12-22T01:30:19;7.22;;;4.50;;
77838;SDS011;67034;43.226;27.932;2023-12-22T01:32:45;5.63;;;4.32;;
77838;SDS011;67034;43.226;27.932;2023-12-22T01:35:11;5.10;;;4.05;;
77838;SDS011;67034;43.226;27.932;2023-12-22T01:37:37;7.70;;;3.67;;
77838;SDS011;67034;43.226;27.932;2023-12-22T01:40:03;6.38;;;3.40;;
77838;SDS011;67034;43.226;27.932;2023-12-22T01:42:31;5.80;;;3.33;;
77838;SDS011;67034;43.226;27.932;2023-12-22T01:44:57;4.60;;;2.67;;
77838;SDS011;67034;43.226;27.932;2023-12-22T01:47:23;5.47;;;3.00;;
77838;SDS011;67034;43.226;27.932;2023-12-22T01:49:49;6.25;;;3.50;;
77838;SDS011;67034;43.226;27.932;2023-12-22T01:52:15;5.07;;;2.97;;
77838;SDS011;67034;43.226;27.932;2023-12-22T01:57:07;4.25;;;2.78;;
77838;SDS011;67034;43.226;27.932;2023-12-22T01:59:36;5.45;;;2.78;;
77838;SDS011;67034;43.226;27.932;2023-12-22T02:02:02;4.22;;;2.85;;
77838;SDS011;67034;43.226;27.932;2023-12-22T02:06:55;4.13;;;2.90;;
77838;SDS011;67034;43.226;27.932;2023-12-22T02:09:23;6.25;;;3.75;;
77838;SDS011;67034;43.226;27.932;2023-12-22T02:11:48;5.18;;;3.28;;
77838;SDS011;67034;43.226;27.932;2023-12-22T02:14:14;5.50;;;2.97;;
77838;SDS011;67034;43.226;27.932;2023-12-22T02:16:42;6.20;;;2.97;;
77838;SDS011;67034;43.226;27.932;2023-12-22T02:19:15;6.38;;;3.15;;
77838;SDS011;67034;43.226;27.932;2023-12-22T02:21:59;3.35;;;2.17;;
77838;SDS011;67034;43.226;27.932;2023-12-22T02:24:26;4.75;;;2.67;;
77838;SDS011;67034;43.226;27.932;2023-12-22T02:26:52;5.00;;;2.53;;
77838;SDS011;67034;43.226;27.932;2023-12-22T02:29:20;5.30;;;2.75;;
77838;SDS011;67034;43.226;27.932;2023-12-22T02:31:48;4.40;;;2.78;;
77838;SDS011;67034;43.226;27.932;2023-12-22T02:34:18;6.70;;;3.95;;
77838;SDS011;67034;43.226;27.932;2023-12-22T02:36:45;6.75;;;4.00;;
77838;SDS011;67034;43.226;27.932;2023-12-22T02:39:13;4.15;;;2.85;;
77838;SDS011;67034;43.226;27.932;2023-12-22T02:41:41;6.10;;;3.20;;
77838;SDS011;67034;43.226;27.932;2023-12-22T02:44:07;4.45;;;2.88;;
77838;SDS011;67034;43.226;27.932;2023-12-22T02:46:33;6.45;;;3.13;;
77838;SDS011;67034;43.226;27.932;2023-12-22T02:48:59;6.18;;;2.92;;
77838;SDS011;67034;43.226;27.932;2023-12-22T02:51:25;7.47;;;3.55;;
77838;SDS011;67034;43.226;27.932;2023-12-22T02:53:51;5.75;;;3.88;;
77838;SDS011;67034;43.226;27.932;2023-12-22T02:56:16;6.90;;;4.80;;
77838;SDS011;67034;43.226;27.932;2023-12-22T02:58:43;5.07;;;3.30;;
77838;SDS011;67034;43.226;27.932;2023-12-22T03:01:09;5.13;;;3.60;;
77838;SDS011;67034;43.226;27.932;2023-12-22T03:03:35;9.38;;;3.45;;
77838;SDS011;67034;43.226;27.932;2023-12-22T03:06:00;5.88;;;3.38;;
77838;SDS011;67034;43.226;27.932;2023-12-22T03:08:26;6.20;;;4.32;;
77838;SDS011;67034;43.226;27.932;2023-12-22T03:10:52;8.63;;;3.90;;
77838;SDS011;67034;43.226;27.932;2023-12-22T03:13:18;8.25;;;5.22;;
77838;SDS011;67034;43.226;27.932;2023-12-22T03:15:45;7.30;;;4.45;;
77838;SDS011;67034;43.226;27.932;2023-12-22T03:18:12;7.95;;;5.45;;
77838;SDS011;67034;43.226;27.932;2023-12-22T03:20:38;6.47;;;4.68;;
77838;SDS011;67034;43.226;27.932;2023-12-22T03:23:04;8.07;;;4.38;;
77838;SDS011;67034;43.226;27.932;2023-12-22T03:25:29;9.70;;;4.55;;
77838;SDS011;67034;43.226;27.932;2023-12-22T03:27:55;5.72;;;4.15;;
77838;SDS011;67034;43.226;27.932;2023-12-22T03:30:21;7.53;;;4.78;;
77838;SDS011;67034;43.226;27.932;2023-12-22T03:32:48;6.50;;;4.00;;
77838;SDS011;67034;43.226;27.932;2023-12-22T03:35:14;5.63;;;4.78;;
77838;SDS011;67034;43.226;27.932;2023-12-22T03:37:40;11.63;;;5.50;;
77838;SDS011;67034;43.226;27.932;2023-12-22T03:40:06;9.85;;;5.35;;
77838;SDS011;67034;43.226;27.932;2023-12-22T03:42:33;9.15;;;5.50;;
77838;SDS011;67034;43.226;27.932;2023-12-22T03:44:58;9.40;;;5.45;;
77838;SDS011;67034;43.226;27.932;2023-12-22T03:47:24;8.82;;;5.38;;
77838;SDS011;67034;43.226;27.932;2023-12-22T03:49:51;8.10;;;4.35;;
77838;SDS011;67034;43.226;27.932;2023-12-22T03:52:17;7.32;;;4.00;;
77838;SDS011;67034;43.226;27.932;2023-12-22T03:54:42;8.10;;;4.35;;
77838;SDS011;67034;43.226;27.932;2023-12-22T03:57:08;9.65;;;4.85;;
77838;SDS011;67034;43.226;27.932;2023-12-22T03:59:34;9.35;;;5.32;;
77838;SDS011;67034;43.226;27.932;2023-12-22T04:02:00;9.80;;;5.43;;
77838;SDS011;67034;43.226;27.932;2023-12-22T04:04:27;7.78;;;4.70;;
77838;SDS011;67034;43.226;27.932;2023-12-22T04:06:54;6.47;;;4.47;;
77838;SDS011;67034;43.226;27.932;2023-12-22T04:09:20;7.80;;;4.65;;
77838;SDS011;67034;43.226;27.932;2023-12-22T04:11:46;8.50;;;4.15;;
77838;SDS011;67034;43.226;27.932;2023-12-22T04:14:11;8.68;;;4.57;;
77838;SDS011;67034;43.226;27.932;2023-12-22T04:16:37;7.03;;;4.28;;
77838;SDS011;67034;43.226;27.932;2023-12-22T04:19:03;7.90;;;4.68;;
77838;SDS011;67034;43.226;27.932;2023-12-22T04:21:29;6.75;;;4.38;;
77838;SDS011;67034;43.226;27.932;2023-12-22T04:23:56;8.70;;;4.55;;
77838;SDS011;67034;43.226;27.932;2023-12-22T04:26:21;9.60;;;5.22;;
77838;SDS011;67034;43.226;27.932;2023-12-22T04:28:47;9.63;;;5.68;;
77838;SDS011;67034;43.226;27.932;2023-12-22T04:31:13;9.10;;;4.28;;
77838;SDS011;67034;43.226;27.932;2023-12-22T04:33:38;10.45;;;5.88;;
77838;SDS011;67034;43.226;27.932;2023-12-22T04:36:04;9.05;;;5.47;;
77838;SDS011;67034;43.226;27.932;2023-12-22T04:38:30;10.30;;;6.35;;
77838;SDS011;67034;43.226;27.932;2023-12-22T04:40:58;9.38;;;5.38;;
77838;SDS011;67034;43.226;27.932;2023-12-22T04:43:23;10.52;;;6.35;;
77838;SDS011;67034;43.226;27.932;2023-12-22T04:45:49;9.52;;;5.88;;
77838;SDS011;67034;43.226;27.932;2023-12-22T04:48:15;11.48;;;6.00;;
77838;SDS011;67034;43.226;27.932;2023-12-22T04:50:40;9.00;;;6.47;;
77838;SDS011;67034;43.226;27.932;2023-12-22T04:53:06;8.75;;;5.30;;
77838;SDS011;67034;43.226;27.932;2023-12-22T04:55:32;14.07;;;6.05;;
77838;SDS011;67034;43.226;27.932;2023-12-22T04:57:59;10.45;;;6.35;;
77838;SDS011;67034;43.226;27.932;2023-12-22T05:00:25;10.10;;;5.95;;
77838;SDS011;67034;43.226;27.932;2023-12-22T05:02:51;13.23;;;7.10;;
77838;SDS011;67034;43.226;27.932;2023-12-22T05:05:17;12.48;;;6.70;;
77838;SDS011;67034;43.226;27.932;2023-12-22T05:07:43;10.05;;;4.65;;
77838;SDS011;67034;43.226;27.932;2023-12-22T05:10:09;7.97;;;5.68;;
77838;SDS011;67034;43.226;27.932;2023-12-22T05:12:35;11.15;;;5.75;;
77838;SDS011;67034;43.226;27.932;2023-12-22T05:15:02;8.65;;;4.97;;
77838;SDS011;67034;43.226;27.932;2023-12-22T05:17:28;12.00;;;6.47;;
77838;SDS011;67034;43.226;27.932;2023-12-22T05:19:53;10.27;;;7.00;;
77838;SDS011;67034;43.226;27.932;2023-12-22T05:22:19;10.73;;;5.43;;
77838;SDS011;67034;43.226;27.932;2023-12-22T05:24:45;11.38;;;5.10;;
77838;SDS011;67034;43.226;27.932;2023-12-22T05:27:11;12.77;;;6.68;;
77838;SDS011;67034;43.226;27.932;2023-12-22T05:29:37;12.65;;;6.57;;
77838;SDS011;67034;43.226;27.932;2023-12-22T05:32:05;9.07;;;5.60;;
77838;SDS011;67034;43.226;27.932;2023-12-22T05:34:31;14.20;;;7.10;;
77838;SDS011;67034;43.226;27.932;2023-12-22T05:36:57;12.18;;;6.55;;
77838;SDS011;67034;43.226;27.932;2023-12-22T05:39:23;9.77;;;5.65;;
77838;SDS011;67034;43.226;27.932;2023-12-22T05:41:48;13.73;;;6.85;;
77838;SDS011;67034;43.226;27.932;2023-12-22T05:44:14;13.05;;;7.35;;
77838;SDS011;67034;43.226;27.932;2023-12-22T05:46:40;14.40;;;7.15;;
77838;SDS011;67034;43.226;27.932;2023-12-22T05:49:07;16.45;;;7.90;;
77838;SDS011;67034;43.226;27.932;2023-12-22T05:51:36;13.27;;;7.43;;
77838;SDS011;67034;43.226;27.932;2023-12-22T05:54:03;9.55;;;5.03;;
77838;SDS011;67034;43.226;27.932;2023-12-22T05:56:29;8.23;;;5.32;;
77838;SDS011;67034;43.226;27.932;2023-12-22T05:58:55;13.45;;;6.78;;
77838;SDS011;67034;43.226;27.932;2023-12-22T06:01:21;12.68;;;6.72;;
77838;SDS011;67034;43.226;27.932;2023-12-22T06:03:47;12.85;;;6.55;;
77838;SDS011;67034;43.226;27.932;2023-12-22T06:06:15;14.95;;;7.22;;
77838;SDS011;67034;43.226;27.932;2023-12-22T06:08:40;9.52;;;6.78;;
77838;SDS011;67034;43.226;27.932;2023-12-22T06:11:06;13.73;;;6.90;;
77838;SDS011;67034;43.226;27.932;2023-12-22T06:13:32;13.77;;;8.05;;
77838;SDS011;67034;43.226;27.932;2023-12-22T06:15:57;16.08;;;8.90;;
77838;SDS011;67034;43.226;27.932;2023-12-22T06:18:23;11.95;;;6.78;;
77838;SDS011;67034;43.226;27.932;2023-12-22T06:20:49;14.02;;;8.57;;
77838;SDS011;67034;43.226;27.932;2023-12-22T06:23:16;14.15;;;8.18;;
77838;SDS011;67034;43.226;27.932;2023-12-22T06:25:42;16.05;;;7.72;;
77838;SDS011;67034;43.226;27.932;2023-12-22T06:28:11;14.25;;;7.32;;
77838;SDS011;67034;43.226;27.932;2023-12-22T06:33:03;14.50;;;7.25;;
77838;SDS011;67034;43.226;27.932;2023-12-22T06:35:29;16.90;;;8.30;;
77838;SDS011;67034;43.226;27.932;2023-12-22T06:38:06;10.92;;;6.88;;
77838;SDS011;67034;43.226;27.932;2023-12-22T06:40:33;12.05;;;7.38;;
77838;SDS011;67034;43.226;27.932;2023-12-22T06:42:59;11.90;;;7.63;;
77838;SDS011;67034;43.226;27.932;2023-12-22T06:47:51;9.88;;;6.10;;
77838;SDS011;67034;43.226;27.932;2023-12-22T06:50:21;14.15;;;6.93;;
77838;SDS011;67034;43.226;27.932;2023-12-22T06:52:47;12.82;;;6.97;;
77838;SDS011;67034;43.226;27.932;2023-12-22T06:55:14;13.75;;;7.63;;
77838;SDS011;67034;43.226;27.932;2023-12-22T06:57:41;14.38;;;7.18;;
77838;SDS011;67034;43.226;27.932;2023-12-22T07:00:08;12.00;;;6.85;;
77838;SDS011;67034;43.226;27.932;2023-12-22T07:02:35;16.10;;;8.60;;
77838;SDS011;67034;43.226;27.932;2023-12-22T07:07:31;9.15;;;6.05;;
77838;SDS011;67034;43.226;27.932;2023-12-22T07:09:57;16.30;;;8.40;;
77838;SDS011;67034;43.226;27.932;2023-12-22T07:14:49;12.52;;;5.90;;
77838;SDS011;67034;43.226;27.932;2023-12-22T07:17:15;14.57;;;8.13;;
77838;SDS011;67034;43.226;27.932;2023-12-22T07:19:41;11.90;;;6.57;;
77838;SDS011;67034;43.226;27.932;2023-12-22T07:22:06;16.73;;;7.95;;
77838;SDS011;67034;43.226;27.932;2023-12-22T07:24:32;15.43;;;8.70;;
77838;SDS011;67034;43.226;27.932;2023-12-22T07:29:23;12.25;;;6.05;;
77838;SDS011;67034;43.226;27.932;2023-12-22T07:31:50;20.27;;;8.60;;
77838;SDS011;67034;43.226;27.932;2023-12-22T07:34:16;16.52;;;7.93;;
77838;SDS011;67034;43.226;27.932;2023-12-22T07:36:43;12.07;;;6.65;;
77838;SDS011;67034;43.226;27.932;2023-12-22T07:39:10;11.75;;;7.47;;
77838;SDS011;67034;43.226;27.932;2023-12-22T07:41:36;12.80;;;6.28;;
77838;SDS011;67034;43.226;27.932;2023-12-22T07:44:02;12.30;;;7.00;;
77838;SDS011;67034;43.226;27.932;2023-12-22T07:46:27;13.38;;;6.15;;
77838;SDS011;67034;43.226;27.932;2023-12-22T07:48:54;10.65;;;6.95;;
77838;SDS011;67034;43.226;27.932;2023-12-22T07:51:20;14.35;;;7.40;;
77838;SDS011;67034;43.226;27.932;2023-12-22T07:56:11;28.60;;;11.48;;
77838;SDS011;67034;43.226;27.932;2023-12-22T08:01:03;16.97;;;8.67;;
77838;SDS011;67034;43.226;27.932;2023-12-22T08:08:21;14.32;;;8.68;;
77838;SDS011;67034;43.226;27.932;2023-12-22T08:13:13;11.98;;;6.45;;
77838;SDS011;67034;43.226;27.932;2023-12-22T08:18:05;15.52;;;8.27;;
77838;SDS011;67034;43.226;27.932;2023-12-22T08:20:31;9.85;;;6.43;;
77838;SDS011;67034;43.226;27.932;2023-12-22T08:25:24;11.97;;;6.63;;
77838;SDS011;67034;43.226;27.932;2023-12-22T08:27:50;8.38;;;5.50;;
77838;SDS011;67034;43.226;27.932;2023-12-22T08:30:15;16.77;;;8.37;;
77838;SDS011;67034;43.226;27.932;2023-12-22T08:37:33;6.97;;;4.50;;
77838;SDS011;67034;43.226;27.932;2023-12-22T08:40:00;8.88;;;5.45;;
77838;SDS011;67034;43.226;27.932;2023-12-22T08:42:25;10.73;;;6.03;;
77838;SDS011;67034;43.226;27.932;2023-12-22T08:44:51;10.10;;;6.43;;
77838;SDS011;67034;43.226;27.932;2023-12-22T08:47:17;9.65;;;5.20;;
77838;SDS011;67034;43.226;27.932;2023-12-22T08:49:50;8.87;;;5.92;;
77838;SDS011;67034;43.226;27.932;2023-12-22T08:52:15;8.30;;;5.60;;
77838;SDS011;67034;43.226;27.932;2023-12-22T08:57:08;11.07;;;5.67;;
77838;SDS011;67034;43.226;27.932;2023-12-22T08:59:34;7.40;;;4.72;;
77838;SDS011;67034;43.226;27.932;2023-12-22T09:02:00;9.20;;;5.93;;
77838;SDS011;67034;43.226;27.932;2023-12-22T09:04:26;10.27;;;7.15;;
77838;SDS011;67034;43.226;27.932;2023-12-22T09:09:17;13.48;;;6.22;;
77838;SDS011;67034;43.226;27.932;2023-12-22T09:11:43;11.40;;;6.75;;
77838;SDS011;67034;43.226;27.932;2023-12-22T09:14:12;11.90;;;7.35;;
77838;SDS011;67034;43.226;27.932;2023-12-22T09:16:37;14.82;;;7.63;;
77838;SDS011;67034;43.226;27.932;2023-12-22T09:21:29;12.88;;;6.80;;
77838;SDS011;67034;43.226;27.932;2023-12-22T09:26:20;11.55;;;6.43;;
77838;SDS011;67034;43.226;27.932;2023-12-22T09:28:46;11.10;;;6.45;;
77838;SDS011;67034;43.226;27.932;2023-12-22T09:31:15;14.18;;;6.45;;
77838;SDS011;67034;43.226;27.932;2023-12-22T09:33:41;16.92;;;9.20;;
77838;SDS011;67034;43.226;27.932;2023-12-22T09:36:07;10.95;;;6.45;;
77838;SDS011;67034;43.226;27.932;2023-12-22T09:38:33;21.98;;;10.60;;
77838;SDS011;67034;43.226;27.932;2023-12-22T09:40:59;12.50;;;7.07;;
77838;SDS011;67034;43.226;27.932;2023-12-22T09:43:26;12.13;;;6.65;;
77838;SDS011;67034;43.226;27.932;2023-12-22T09:45:52;14.90;;;7.07;;
77838;SDS011;67034;43.226;27.932;2023-12-22T09:48:19;16.30;;;8.13;;
77838;SDS011;67034;43.226;27.932;2023-12-22T09:50:52;13.88;;;8.35;;
77838;SDS011;67034;43.226;27.932;2023-12-22T09:53:18;14.05;;;8.23;;
77838;SDS011;67034;43.226;27.932;2023-12-22T09:55:45;17.25;;;8.50;;
77838;SDS011;67034;43.226;27.932;2023-12-22T09:58:12;16.45;;;8.35;;
77838;SDS011;67034;43.226;27.932;2023-12-22T10:00:39;9.30;;;6.63;;
77838;SDS011;67034;43.226;27.932;2023-12-22T10:03:06;15.55;;;6.70;;
77838;SDS011;67034;43.226;27.932;2023-12-22T10:05:33;15.20;;;6.57;;
77838;SDS011;67034;43.226;27.932;2023-12-22T10:07:59;18.55;;;7.70;;
77838;SDS011;67034;43.226;27.932;2023-12-22T10:10:26;12.27;;;6.68;;
77838;SDS011;67034;43.226;27.932;2023-12-22T10:12:56;15.70;;;6.20;;
77838;SDS011;67034;43.226;27.932;2023-12-22T10:15:23;11.45;;;5.45;;
77838;SDS011;67034;43.226;27.932;2023-12-22T10:17:50;10.15;;;6.07;;
77838;SDS011;67034;43.226;27.932;2023-12-22T10:20:16;10.68;;;5.85;;
77838;SDS011;67034;43.226;27.932;2023-12-22T10:22:43;16.15;;;6.68;;
77838;SDS011;67034;43.226;27.932;2023-12-22T10:25:09;14.07;;;5.95;;
77838;SDS011;67034;43.226;27.932;2023-12-22T10:27:35;14.60;;;6.20;;
77838;SDS011;67034;43.226;27.932;2023-12-22T10:30:02;17.05;;;8.02;;
77838;SDS011;67034;43.226;27.932;2023-12-22T10:32:29;17.02;;;8.23;;
77838;SDS011;67034;43.226;27.932;2023-12-22T10:34:55;16.55;;;6.40;;
77838;SDS011;67034;43.226;27.932;2023-12-22T10:37:22;9.15;;;5.70;;
77838;SDS011;67034;43.226;27.932;2023-12-22T10:39:53;17.38;;;7.35;;
77838;SDS011;67034;43.226;27.932;2023-12-22T10:42:19;12.75;;;5.97;;
77838;SDS011;67034;43.226;27.932;2023-12-22T10:44:45;20.37;;;8.33;;
77838;SDS011;67034;43.226;27.932;2023-12-22T10:47:11;15.88;;;8.05;;
77838;SDS011;67034;43.226;27.932;2023-12-22T10:49:37;13.05;;;6.85;;
77838;SDS011;67034;43.226;27.932;2023-12-22T10:52:03;12.23;;;6.28;;
77838;SDS011;67034;43.226;27.932;2023-12-22T10:54:29;8.45;;;5.22;;
77838;SDS011;67034;43.226;27.932;2023-12-22T10:56:59;11.07;;;6.13;;
77838;SDS011;67034;43.226;27.932;2023-12-22T10:59:28;9.98;;;5.80;;
77838;SDS011;67034;43.226;27.932;2023-12-22T11:01:57;8.50;;;5.25;;
77838;SDS011;67034;43.226;27.932;2023-12-22T11:04:25;11.82;;;6.65;;
77838;SDS011;67034;43.226;27.932;2023-12-22T11:06:57;15.32;;;6.75;;
77838;SDS011;67034;43.226;27.932;2023-12-22T11:09:24;13.73;;;6.60;;
77838;SDS011;67034;43.226;27.932;2023-12-22T11:11:56;10.68;;;5.57;;
77838;SDS011;67034;43.226;27.932;2023-12-22T11:14:23;14.80;;;7.28;;
77838;SDS011;67034;43.226;27.932;2023-12-22T11:16:51;13.95;;;7.60;;
77838;SDS011;67034;43.226;27.932;2023-12-22T11:19:20;10.32;;;5.85;;
77838;SDS011;67034;43.226;27.932;2023-12-22T11:21:47;13.52;;;6.78;;
77838;SDS011;67034;43.226;27.932;2023-12-22T11:24:18;11.07;;;6.03;;
77838;SDS011;67034;43.226;27.932;2023-12-22T11:26:45;14.25;;;8.80;;
77838;SDS011;67034;43.226;27.932;2023-12-22T11:29:12;12.10;;;7.07;;
77838;SDS011;67034;43.226;27.932;2023-12-22T11:31:41;11.73;;;6.80;;
77838;SDS011;67034;43.226;27.932;2023-12-22T11:34:11;11.15;;;7.53;;
77838;SDS011;67034;43.226;27.932;2023-12-22T11:36:38;12.43;;;7.40;;
77838;SDS011;67034;43.226;27.932;2023-12-22T11:39:05;13.23;;;6.65;;
77838;SDS011;67034;43.226;27.932;2023-12-22T11:41:32;11.43;;;7.45;;
77838;SDS011;67034;43.226;27.932;2023-12-22T11:44:00;14.10;;;7.82;;
77838;SDS011;67034;43.226;27.932;2023-12-22T11:46:29;13.65;;;8.82;;
77838;SDS011;67034;43.226;27.932;2023-12-22T11:48:57;15.15;;;8.38;;
77838;SDS011;67034;43.226;27.932;2023-12-22T11:51:24;11.80;;;6.95;;
77838;SDS011;67034;43.226;27.932;2023-12-22T11:53:57;16.08;;;8.48;;
77838;SDS011;67034;43.226;27.932;2023-12-22T11:56:23;11.70;;;6.93;;
77838;SDS011;67034;43.226;27.932;2023-12-22T11:58:51;11.07;;;7.10;;
77838;SDS011;67034;43.226;27.932;2023-12-22T12:01:24;11.45;;;7.50;;
77838;SDS011;67034;43.226;27.932;2023-12-22T12:03:50;14.55;;;8.10;;
77838;SDS011;67034;43.226;27.932;2023-12-22T12:06:30;15.35;;;7.78;;
77838;SDS011;67034;43.226;27.932;2023-12-22T12:08:58;11.55;;;7.32;;
77838;SDS011;67034;43.226;27.932;2023-12-22T12:14:37;13.27;;;7.57;;
77838;SDS011;67034;43.226;27.932;2023-12-22T12:17:07;13.35;;;7.63;;
77838;SDS011;67034;43.226;27.932;2023-12-22T12:19:34;14.20;;;7.93;;
77838;SDS011;67034;43.226;27.932;2023-12-22T12:22:01;13.93;;;8.63;;
77838;SDS011;67034;43.226;27.932;2023-12-22T12:24:27;14.30;;;7.57;;
77838;SDS011;67034;43.226;27.932;2023-12-22T12:26:52;12.02;;;7.80;;
77838;SDS011;67034;43.226;27.932;2023-12-22T12:29:18;14.80;;;8.23;;
77838;SDS011;67034;43.226;27.932;2023-12-22T12:31:45;16.73;;;9.00;;
77838;SDS011;67034;43.226;27.932;2023-12-22T12:34:11;15.27;;;8.18;;
77838;SDS011;67034;43.226;27.932;2023-12-22T12:36:39;14.65;;;8.18;;
77838;SDS011;67034;43.226;27.932;2023-12-22T12:39:07;10.73;;;7.40;;
77838;SDS011;67034;43.226;27.932;2023-12-22T12:41:36;14.13;;;8.48;;
77838;SDS011;67034;43.226;27.932;2023-12-22T12:44:05;19.45;;;9.90;;
77838;SDS011;67034;43.226;27.932;2023-12-22T12:46:32;18.85;;;9.07;;
77838;SDS011;67034;43.226;27.932;2023-12-22T12:49:02;19.10;;;9.90;;
77838;SDS011;67034;43.226;27.932;2023-12-22T12:51:29;18.35;;;9.43;;
77838;SDS011;67034;43.226;27.932;2023-12-22T12:53:55;12.45;;;8.68;;
77838;SDS011;67034;43.226;27.932;2023-12-22T12:56:22;17.30;;;9.15;;
77838;SDS011;67034;43.226;27.932;2023-12-22T12:58:48;19.02;;;8.70;;
77838;SDS011;67034;43.226;27.932;2023-12-22T13:01:14;19.13;;;9.75;;
77838;SDS011;67034;43.226;27.932;2023-12-22T13:03:53;14.77;;;8.77;;
77838;SDS011;67034;43.226;27.932;2023-12-22T13:06:19;21.67;;;9.93;;
77838;SDS011;67034;43.226;27.932;2023-12-22T13:08:47;16.30;;;8.18;;
77838;SDS011;67034;43.226;27.932;2023-12-22T13:11:13;13.23;;;9.02;;
77838;SDS011;67034;43.226;27.932;2023-12-22T13:13:44;20.58;;;9.77;;
77838;SDS011;67034;43.226;27.932;2023-12-22T13:16:12;14.48;;;8.65;;
77838;SDS011;67034;43.226;27.932;2023-12-22T13:18:42;15.55;;;8.65;;
77838;SDS011;67034;43.226;27.932;2023-12-22T13:21:08;12.55;;;7.53;;
77838;SDS011;67034;43.226;27.932;2023-12-22T13:23:34;24.90;;;10.95;;
77838;SDS011;67034;43.226;27.932;2023-12-22T13:25:59;12.75;;;7.22;;
77838;SDS011;67034;43.226;27.932;2023-12-22T13:28:25;10.85;;;6.55;;
77838;SDS011;67034;43.226;27.932;2023-12-22T13:30:53;8.43;;;5.18;;
77838;SDS011;67034;43.226;27.932;2023-12-22T13:33:20;12.15;;;6.25;;
77838;SDS011;67034;43.226;27.932;2023-12-22T13:35:46;8.65;;;5.40;;
77838;SDS011;67034;43.226;27.932;2023-12-22T13:38:12;9.60;;;5.28;;
77838;SDS011;67034;43.226;27.932;2023-12-22T13:40:39;8.48;;;4.45;;
77838;SDS011;67034;43.226;27.932;2023-12-22T13:43:11;5.60;;;3.60;;
77838;SDS011;67034;43.226;27.932;2023-12-22T13:45:37;7.70;;;4.03;;
77838;SDS011;67034;43.226;27.932;2023-12-22T13:48:05;6.90;;;3.75;;
77838;SDS011;67034;43.226;27.932;2023-12-22T13:50:31;5.15;;;2.97;;
77838;SDS011;67034;43.226;27.932;2023-12-22T13:53:06;6.93;;;3.70;;
77838;SDS011;67034;43.226;27.932;2023-12-22T13:55:32;7.78;;;3.17;;
77838;SDS011;67034;43.226;27.932;2023-12-22T13:58:03;4.70;;;2.70;;
77838;SDS011;67034;43.226;27.932;2023-12-22T14:00:31;5.57;;;2.75;;
77838;SDS011;67034;43.226;27.932;2023-12-22T14:02:57;5.93;;;2.80;;
77838;SDS011;67034;43.226;27.932;2023-12-22T14:05:25;4.00;;;2.55;;
77838;SDS011;67034;43.226;27.932;2023-12-22T14:07:53;8.95;;;3.50;;
77838;SDS011;67034;43.226;27.932;2023-12-22T14:10:19;5.82;;;2.78;;
77838;SDS011;67034;43.226;27.932;2023-12-22T14:12:45;4.50;;;3.13;;
77838;SDS011;67034;43.226;27.932;2023-12-22T14:15:11;4.47;;;2.70;;
77838;SDS011;67034;43.226;27.932;2023-12-22T14:17:37;5.75;;;3.33;;
77838;SDS011;67034;43.226;27.932;2023-12-22T14:20:04;5.85;;;2.90;;
77838;SDS011;67034;43.226;27.932;2023-12-22T14:22:34;9.10;;;3.60;;
77838;SDS011;67034;43.226;27.932;2023-12-22T14:24:59;2.92;;;1.88;;
77838;SDS011;67034;43.226;27.932;2023-12-22T14:27:25;5.25;;;2.60;;
77838;SDS011;67034;43.226;27.932;2023-12-22T14:29:51;4.22;;;3.10;;
77838;SDS011;67034;43.226;27.932;2023-12-22T14:32:17;3.60;;;2.70;;
77838;SDS011;67034;43.226;27.932;2023-12-22T14:34:45;3.65;;;2.75;;
77838;SDS011;67034;43.226;27.932;2023-12-22T14:37:12;6.80;;;2.38;;
77838;SDS011;67034;43.226;27.932;2023-12-22T14:39:39;2.87;;;1.93;;
77838;SDS011;67034;43.226;27.932;2023-12-22T14:42:05;3.75;;;2.40;;
77838;SDS011;67034;43.226;27.932;2023-12-22T14:44:33;8.70;;;3.70;;
77838;SDS011;67034;43.226;27.932;2023-12-22T14:46:59;3.42;;;1.98;;
77838;SDS011;67034;43.226;27.932;2023-12-22T14:49:25;4.43;;;2.22;;
77838;SDS011;67034;43.226;27.932;2023-12-22T14:51:50;3.15;;;2.35;;
77838;SDS011;67034;43.226;27.932;2023-12-22T14:54:18;8.25;;;2.70;;
77838;SDS011;67034;43.226;27.932;2023-12-22T14:56:46;6.63;;;2.30;;
77838;SDS011;67034;43.226;27.932;2023-12-22T14:59:12;4.63;;;2.50;;
77838;SDS011;67034;43.226;27.932;2023-12-22T15:01:39;5.35;;;2.50;;
77838;SDS011;67034;43.226;27.932;2023-12-22T15:04:05;5.57;;;2.83;;
77838;SDS011;67034;43.226;27.932;2023-12-22T15:06:32;4.95;;;2.65;;
77838;SDS011;67034;43.226;27.932;2023-12-22T15:08:58;5.72;;;2.20;;
77838;SDS011;67034;43.226;27.932;2023-12-22T15:11:27;3.30;;;1.83;;
77838;SDS011;67034;43.226;27.932;2023-12-22T15:13:54;3.90;;;2.25;;
77838;SDS011;67034;43.226;27.932;2023-12-22T15:16:19;3.05;;;1.83;;